Flight Track Log - Related Links

Times and Time Zones

All times are in EST time to prevent confusion due to time zone crossing. See the N84HA flight status page for this flight to view local times or setup timezone preferences in your user account.

Time Position Orientation Groundspeed Altitude Reporting Facility
EST Latitude Longitude Course Direction KTS MPH feet Rate Location/Type
Sat 09:41:22 PM 32.2217 -81.3258 270° West 119 137 6,000  Level Jacksonville Center
Sat 09:42:22 PM 32.2386 -81.3575 302° West 119 137 7,100 1,100 Climbing Jacksonville Center
Sat 09:43:00 PM 32.2741 -81.4814 301° West  Level FlightAware Approximate
Sat 09:43:22 PM 32.2578 -81.3842 310° West 114 131 8,200  Level Jacksonville Center
Sat 09:44:00 PM 32.3018 -81.5277 308° West  Level FlightAware Approximate
Sat 09:44:21 PM 32.2789 -81.4133 311° West 114 131 9,300  Level Jacksonville Center
Sat 09:45:00 PM 32.3167 -81.5785 270° West  Level FlightAware Approximate
Sat 09:45:22 PM 32.2983 -81.4522 301° West 120 138 10,500  Level Jacksonville Center
Sat 09:46:22 PM 32.3133 -81.4842 299° West 125 144 11,600 1,050 Climbing Jacksonville Center
Sat 09:47:22 PM 32.3281 -81.5133 301° West 119 137 12,600 1,050 Climbing Jacksonville Center
Sat 09:48:22 PM 32.3472 -81.5475 304° West 119 137 13,700 1,000 Climbing Jacksonville Center
Sat 09:49:22 PM 32.3622 -81.5792 299° West 119 137 14,600 950 Climbing Jacksonville Center
Sat 09:50:22 PM 32.3794 -81.6183 298° West 119 137 15,600 520 Climbing Jacksonville Center
Sat 09:52:15 PM 32.4214 -81.6914 304° West 135 155 16,100 208 Climbing Atlanta Center
Sat 09:53:15 PM 32.4453 -81.7425 299° West 153 176 16,200 50 Climbing Atlanta Center
Sat 09:54:15 PM 32.4692 -81.7886 302° West 165 190 16,200  Level Atlanta Center
Sat 09:55:15 PM 32.4908 -81.8325 300° West 170 196 16,200  Level Atlanta Center
Sat 09:56:15 PM 32.5144 -81.8811 300° West 170 196 16,200  Level Atlanta Center
Sat 09:57:15 PM 32.5383 -81.9272 302° West 170 196 16,200 -50 Level Atlanta Center
Sat 09:58:15 PM 32.5642 -81.9783 301° West 175 201 16,100  Descending Atlanta Center
Sat 09:59:15 PM 32.5881 -82.0222 303° West 175 201 16,200  Climbing Atlanta Center
Sat 10:00:15 PM 32.6139 -82.0733 301° West 175 201 16,100 -50 Descending Atlanta Center
Sat 10:01:15 PM 32.6375 -82.1197 301° West 175 201 16,100  Level Atlanta Center
Sat 10:02:15 PM 32.6592 -82.1686 298° West 175 201 16,100  Level Atlanta Center
Sat 10:03:15 PM 32.6850 -82.2175 302° West 175 201 16,100  Level Atlanta Center
Sat 10:04:15 PM 32.7064 -82.2664 297° West 175 201 16,100 -50 Level Atlanta Center
Sat 10:05:15 PM 32.7300 -82.3128 301° West 175 201 16,000  Descending Atlanta Center
Sat 10:06:15 PM 32.7558 -82.3617 302° West 175 201 16,100 50 Climbing Atlanta Center
Sat 10:07:15 PM 32.7772 -82.4058 300° West 175 201 16,100  Level Atlanta Center
Sat 10:08:15 PM 32.8008 -82.4547 300° West 169 194 16,100 -50 Level Atlanta Center
Sat 10:09:15 PM 32.8225 -82.5014 299° West 169 194 16,000 -50 Descending Atlanta Center
Sat 10:10:15 PM 32.8458 -82.5481 301° West 169 194 16,000  Level Atlanta Center
Sat 10:11:15 PM 32.8714 -82.5944 303° West 163 188 16,000  Level Atlanta Center
Sat 10:12:15 PM 32.8931 -82.6436 298° West 163 188 16,000  Level Atlanta Center
Sat 10:13:15 PM 32.9164 -82.6903 301° West 163 188 16,000 50 Level Atlanta Center
Sat 10:14:15 PM 32.9378 -82.7369 299° West 163 188 16,100  Climbing Atlanta Center
Sat 10:15:15 PM 32.9611 -82.7836 301° West 163 188 16,000 -50 Descending Atlanta Center
Sat 10:16:15 PM 32.9847 -82.8303 301° West 163 188 16,000 -200 Level Atlanta Center
Sat 10:17:15 PM 33.0081 -82.8794 300° West 163 188 15,600 -550 Descending Atlanta Center
Sat 10:18:15 PM 33.0336 -82.9311 301° West 168 193 14,900 -800 Descending Atlanta Center
Sat 10:19:15 PM 33.0592 -82.9878 298° West 180 207 14,000 -950 Descending Atlanta Center
Sat 10:20:15 PM 33.0847 -83.0447 298° West 196 226 13,000 -850 Descending Atlanta Center
Sat 10:21:15 PM 33.1122 -83.0964 302° West 196 226 12,300 -700 Descending Atlanta Center
Sat 10:22:15 PM 33.1356 -83.1508 297° West 191 220 11,600 -750 Descending Atlanta Center
Sat 10:23:15 PM 33.1653 -83.2000 306° West 179 206 10,800 -750 Descending Atlanta Center
Sat 10:24:15 PM 33.1883 -83.2494 299° West 179 206 10,100 -700 Descending Atlanta Center
Sat 10:25:15 PM 33.2139 -83.3064 298° West 185 213 9,400 -692 Descending Atlanta Center
Sat 10:27:17 PM 33.2667 -83.4000 304° West 172 198 8,000 -443 Descending Atlanta TRACON
Sat 10:28:11 PM 33.2833 -83.4500 292° West 162 186 8,100  Climbing Atlanta TRACON
Sat 10:29:11 PM 33.3000 -83.4833 301° West 148 170 8,000 -48 Descending Atlanta TRACON
Sat 10:30:17 PM 33.3333 -83.5333 309° West 147 169 8,000  Level Atlanta TRACON
Sat 10:31:17 PM 33.3500 -83.5833 292° West 148 170 8,000  Level Atlanta TRACON
Sat 10:32:11 PM 33.3667 -83.6167 301° West 146 168 8,000  Level Atlanta TRACON
Sat 10:33:11 PM 33.3833 -83.6667 292° West 145 167 8,000 -50 Level Atlanta TRACON
Sat 10:34:11 PM 33.4000 -83.7000 301° West 147 169 7,900 -350 Descending Atlanta TRACON
Sat 10:35:11 PM 33.4333 -83.7500 309° West 160 184 7,300 -550 Descending Atlanta TRACON
Sat 10:36:11 PM 33.4667 -83.7833 320° Northwest 177 204 6,800 -400 Descending Atlanta TRACON
Sat 10:37:11 PM 33.5167 -83.8000 344° North 167 192 6,500 -350 Descending Atlanta TRACON
Sat 10:38:11 PM 33.5333 -83.8500 292° West 158 182 6,100 -500 Descending Atlanta TRACON
Sat 10:39:11 PM 33.5667 -83.8833 320° Northwest 161 185 5,500 -600 Descending Atlanta TRACON
Sat 10:40:11 PM 33.6000 -83.9333 309° West 165 190 4,900 -700 Descending Atlanta TRACON
Sat 10:41:11 PM 33.6167 -83.9833 292° West 170 196 4,100 -450 Descending Atlanta TRACON
Sat 10:42:11 PM 33.6500 -84.0167 320° Northwest 158 182 4,000 -50 Descending Atlanta TRACON
Sat 10:43:11 PM 33.6667 -84.0667 292° West 152 175 4,000  Level Atlanta TRACON
Sat 10:44:11 PM 33.7000 -84.1000 320° Northwest 138 159 4,000  Level Atlanta TRACON
Sat 10:45:11 PM 33.7167 -84.1333 301° West 140 161 4,000  Level Atlanta TRACON
Sat 10:46:11 PM 33.7500 -84.1667 320° Northwest 137 158 4,000  Level Atlanta TRACON
Sat 10:47:11 PM 33.7667 -84.2000 301° West 139 160 4,000 -95 Level Atlanta TRACON
Sat 10:48:17 PM 33.8000 -84.2500 309° West 148 170 3,800 -381 Descending Atlanta TRACON
Sat 10:49:17 PM 33.8167 -84.3000 292° West 157 181 3,200 -286 Descending Atlanta TRACON
Sat 10:50:23 PM 33.8000 -84.3500 248° West 130 150 3,200 -238 Level Atlanta TRACON
Sat 10:51:23 PM 33.8000 -84.3833 270° West 117 135 2,700 -450 Descending Atlanta TRACON
Sat 10:52:23 PM 33.8000 -84.4167 270° West 100 115 2,300 -350 Descending Atlanta TRACON
Sat 10:53:23 PM 33.7833 -84.4500 239° Southwest 100 115 2,000 -400 Descending Atlanta TRACON
Sat 10:54:23 PM 33.7833 -84.4833 270° West 102 117 1,500 -500 Descending Atlanta TRACON
Sat 10:56:00 PM 33.7667 -84.5167 270° West  Level FlightAware Approximate
Sat 11:03:00 PM 33.7791 -84.5214 270° West  Level Estimated

Login

Don't have an account? Register now (free) for customized features, flight alerts, and more!